Sunday, January 25, 2015, 9:12 AM EST

KOFP, Hanover County Municipal

Location: Ashland, VA, United States Lat: 37.7
Local Time: 9:12 AM EST (14:12 GMT) Lon: -77.433
Time Zone: US/Eastern Elev: 203 ft

Show me the last for .
Show Decoded

2015-01-25 08:54 METAR KOFP 251354Z AUTO 19003KT 10SM CLR 01/M02 A2989 RMK AO2 SLP123 T00111017 =
2015-01-25 07:54 METAR KOFP 251254Z AUTO 20004KT 10SM CLR M01/M02 A2987 RMK AO2 SLP117 T10061022
                 =
2015-01-25 06:54 METAR KOFP 251154Z AUTO 00000KT 9SM CLR M02/M03 A2987 RMK AO2 SLP116 70005
                 T10171028 10017 21022 51018 =
2015-01-25 04:54 METAR KOFP 250954Z AUTO 21004KT 10SM CLR 00/M03 A2984 RMK AO2 SLP107 T00001033 =
2015-01-25 03:54 METAR KOFP 250854Z AUTO 19003KT 10SM CLR M01/M04 A2982 RMK AO2 SLP098 T10111039
                 51020 =
2015-01-25 02:54 METAR KOFP 250754Z AUTO 23004KT 10SM CLR M01/M03 A2980 RMK AO2 SLP092 T10061033
                 =
2015-01-25 01:54 METAR KOFP 250654Z AUTO 24005KT 10SM BKN050 01/M03 A2978 RMK AO2 SLP084
                 T00111033 =
2015-01-25 00:54 METAR KOFP 250554Z AUTO 24008KT 10SM CLR 02/M04 A2976 RMK AO2 SLP078 T00171039
                 10044 20017 51023 =
2015-01-24 23:54 METAR KOFP 250454Z AUTO 26008KT 10SM CLR 02/M03 A2974 RMK AO2 SLP071 T00171033
                 400610011 =
2015-01-24 22:54 METAR KOFP 250354Z AUTO 22005KT 10SM CLR 02/M03 A2971 RMK AO2 SLP063 T00171033 =
2015-01-24 21:54 METAR KOFP 250254Z AUTO 26007KT 10SM CLR 03/M03 A2969 RMK AO2 SLP055 T00281028
                 53022 =
2015-01-24 20:54 METAR KOFP 250154Z AUTO 25006KT 10SM CLR 03/M01 A2966 RMK AO2 SLP044 T00281011 =
2015-01-24 19:54 METAR KOFP 250054Z AUTO 25005KT 10SM CLR 03/01 A2964 RMK AO2 SLP038 T00330011 =
2015-01-24 18:54 METAR KOFP 242354Z AUTO 23005KT 10SM CLR 04/02 A2963 RMK AO2 SLP033 60005
                 T00390022 10061 20033 53023 =
2015-01-24 17:54 METAR KOFP 242254Z AUTO 24004KT 10SM CLR 04/03 A2959 RMK AO2 SLP021 T00440028 =
2015-01-24 16:54 METAR KOFP 242154Z AUTO 26007KT 10SM CLR 06/03 A2957 RMK AO2 SLP013 T00610033 =
2015-01-24 16:32 METAR KOFP 242132Z AUTO 25006KT 10SM SCT014 SCT080 06/04 A2957 RMK AO2 T00610039
                 =
2015-01-24 15:54 METAR KOFP 242054Z AUTO 25007KT 10SM BKN012 BKN075 06/04 A2956 RMK AO2 RAE05
                 SLP010 P0000 60005 T00560039 51022 =
2015-01-24 15:46 METAR KOFP 242046Z AUTO 25005KT 10SM BKN012 OVC075 06/04 A2955 RMK AO2 RAE05
                 P0000 T00560039 =
2015-01-24 15:12 METAR KOFP 242012Z AUTO 27008KT 10SM SCT014 BKN055 OVC070 05/03 A2954 RMK AO2
                 RAE05 P0000 T00500033 =
2015-01-24 14:54 METAR KOFP 241954Z AUTO 28009KT 10SM -RA FEW010 BKN014 OVC035 04/03 A2954 RMK
                 AO2 SLP005 P0001 T00440028 =
2015-01-24 14:46 METAR KOFP 241946Z AUTO 28007KT 8SM -RA BKN012 OVC035 04/03 A2954 RMK AO2 P0001
                 T00440028 =
2015-01-24 14:36 METAR KOFP 241936Z AUTO 26009KT 5SM -RA BR FEW009 BKN036 OVC045 04/03 A2954 RMK
                 AO2 P0001 T00440033 =
2015-01-24 14:24 METAR KOFP 241924Z AUTO 26008KT 9SM -RA SCT009 BKN016 OVC045 04/03 A2954 RMK AO2
                 P0000 T00390028 =
2015-01-24 13:54 METAR KOFP 241854Z AUTO 28008KT 8SM -RA SCT009 BKN012 OVC023 03/02 A2953 RMK AO2
                 SLP000 P0004 T00330022 =
2015-01-24 13:27 METAR KOFP 241827Z AUTO 30010KT 5SM -RA BR BKN012 BKN017 OVC023 04/02 A2951 RMK
                 AO2 P0002 T00390022 =
2015-01-24 12:54 METAR KOFP 241754Z AUTO 31010KT 10SM -RA FEW009 OVC027 04/02 A2949 RMK AO2 RAB48
                 SLP988 P0000 60000 T00390022 10039 20017 56031 =
2015-01-24 12:41 METAR KOFP 241741Z AUTO 32009KT 10SM FEW009 OVC025 04/02 A2949 RMK AO2 T00390022
                 =
2015-01-24 11:54 METAR KOFP 241654Z AUTO 30007KT 10SM OVC006 03/03 A2953 RMK AO2 CIG 004V009
                 SLP999 T00330028 =
2015-01-24 11:26 METAR KOFP 241626Z AUTO 31008KT 290V360 10SM OVC005 03/02 A2953 RMK AO2 CIG
                 004V009 T00330022 =
2015-01-24 11:09 METAR KOFP 241609Z AUTO 32008KT 280V360 5SM BR OVC004 03/02 A2951 RMK AO2
                 T00280022 =
2015-01-24 10:54 METAR KOFP 241554Z AUTO 33006KT 2 1/2SM BR OVC004 02/02 A2952 RMK AO2 SLP999
                 T00220017 =
2015-01-24 10:22 METAR KOFP 241522Z AUTO 32006KT 2SM BR OVC004 02/02 A2956 RMK AO2 T00220017 =
2015-01-24 09:54 METAR KOFP 241454Z AUTO 1 1/2SM BR OVC003 02/02 A2959 RMK AO2 SLP020 60000
                 T00170017 53010 =
2015-01-24 09:44 METAR KOFP 241444Z AUTO 30006KT 1 1/2SM BR OVC003 02/01 A2959 RMK AO2 T00170011
                 =

Support USWX by starting your Amazon purchase here.